sensor_id;sensor_type;location;lat;lon;timestamp;P1;durP1;ratioP1;P2;durP2;ratioP2
80175;SDS011;71945;42.122;24.732;2023-10-13T00:02:01;0.10;;;0.10;;
80175;SDS011;71945;42.122;24.732;2023-10-13T00:04:29;0.03;;;0.03;;
80175;SDS011;71945;42.122;24.732;2023-10-13T00:06:58;0.10;;;0.10;;
80175;SDS011;71945;42.122;24.732;2023-10-13T00:09:27;0.10;;;0.10;;
80175;SDS011;71945;42.122;24.732;2023-10-13T00:12:03;0.10;;;0.10;;
80175;SDS011;71945;42.122;24.732;2023-10-13T00:14:33;0.10;;;0.10;;
80175;SDS011;71945;42.122;24.732;2023-10-13T00:17:02;0.10;;;0.10;;
80175;SDS011;71945;42.122;24.732;2023-10-13T00:19:29;0.10;;;0.10;;
80175;SDS011;71945;42.122;24.732;2023-10-13T00:22:19;0.10;;;0.10;;
80175;SDS011;71945;42.122;24.732;2023-10-13T00:24:45;0.10;;;0.10;;
80175;SDS011;71945;42.122;24.732;2023-10-13T00:27:11;0.10;;;0.10;;
80175;SDS011;71945;42.122;24.732;2023-10-13T00:29:57;0.10;;;0.10;;
80175;SDS011;71945;42.122;24.732;2023-10-13T00:32:43;0.10;;;0.10;;
80175;SDS011;71945;42.122;24.732;2023-10-13T00:35:10;0.10;;;0.10;;
80175;SDS011;71945;42.122;24.732;2023-10-13T00:37:49;0.10;;;0.10;;
80175;SDS011;71945;42.122;24.732;2023-10-13T00:40:18;0.10;;;0.10;;
80175;SDS011;71945;42.122;24.732;2023-10-13T00:42:56;0.15;;;0.15;;
80175;SDS011;71945;42.122;24.732;2023-10-13T00:45:41;0.10;;;0.10;;
80175;SDS011;71945;42.122;24.732;2023-10-13T00:48:24;0.10;;;0.10;;
80175;SDS011;71945;42.122;24.732;2023-10-13T00:50:57;0.10;;;0.10;;
80175;SDS011;71945;42.122;24.732;2023-10-13T00:53:33;0.10;;;0.10;;
80175;SDS011;71945;42.122;24.732;2023-10-13T00:56:03;0.10;;;0.10;;
80175;SDS011;71945;42.122;24.732;2023-10-13T00:58:32;0.10;;;0.10;;
80175;SDS011;71945;42.122;24.732;2023-10-13T01:00:59;0.10;;;0.10;;
80175;SDS011;71945;42.122;24.732;2023-10-13T01:03:53;0.10;;;0.10;;
80175;SDS011;71945;42.122;24.732;2023-10-13T01:06:28;0.10;;;0.10;;
80175;SDS011;71945;42.122;24.732;2023-10-13T01:11:49;0.10;;;0.10;;
80175;SDS011;71945;42.122;24.732;2023-10-13T01:14:19;0.10;;;0.10;;
80175;SDS011;71945;42.122;24.732;2023-10-13T01:16:46;0.10;;;0.10;;
80175;SDS011;71945;42.122;24.732;2023-10-13T01:19:15;0.10;;;0.10;;
80175;SDS011;71945;42.122;24.732;2023-10-13T01:21:49;0.10;;;0.10;;
80175;SDS011;71945;42.122;24.732;2023-10-13T01:24:21;0.10;;;0.10;;
80175;SDS011;71945;42.122;24.732;2023-10-13T01:26:49;0.10;;;0.10;;
80175;SDS011;71945;42.122;24.732;2023-10-13T01:29:18;0.10;;;0.10;;
80175;SDS011;71945;42.122;24.732;2023-10-13T01:31:44;0.10;;;0.10;;
80175;SDS011;71945;42.122;24.732;2023-10-13T01:34:17;0.10;;;0.10;;
80175;SDS011;71945;42.122;24.732;2023-10-13T01:36:52;0.10;;;0.10;;
80175;SDS011;71945;42.122;24.732;2023-10-13T01:39:20;0.10;;;0.10;;
80175;SDS011;71945;42.122;24.732;2023-10-13T01:41:51;0.10;;;0.10;;
80175;SDS011;71945;42.122;24.732;2023-10-13T01:44:23;0.10;;;0.10;;
80175;SDS011;71945;42.122;24.732;2023-10-13T01:46:55;0.10;;;0.10;;
80175;SDS011;71945;42.122;24.732;2023-10-13T01:49:24;0.10;;;0.10;;
80175;SDS011;71945;42.122;24.732;2023-10-13T01:51:52;0.10;;;0.10;;
80175;SDS011;71945;42.122;24.732;2023-10-13T01:54:19;0.10;;;0.10;;
80175;SDS011;71945;42.122;24.732;2023-10-13T01:56:46;0.10;;;0.10;;
80175;SDS011;71945;42.122;24.732;2023-10-13T01:59:14;0.10;;;0.10;;
80175;SDS011;71945;42.122;24.732;2023-10-13T02:01:40;0.10;;;0.10;;
80175;SDS011;71945;42.122;24.732;2023-10-13T02:04:07;0.10;;;0.10;;
80175;SDS011;71945;42.122;24.732;2023-10-13T02:06:35;0.10;;;0.10;;
80175;SDS011;71945;42.122;24.732;2023-10-13T02:09:03;0.20;;;0.20;;
80175;SDS011;71945;42.122;24.732;2023-10-13T02:14:13;0.10;;;0.10;;
80175;SDS011;71945;42.122;24.732;2023-10-13T02:16:42;0.10;;;0.10;;
80175;SDS011;71945;42.122;24.732;2023-10-13T02:19:11;0.10;;;0.10;;
80175;SDS011;71945;42.122;24.732;2023-10-13T02:21:40;0.10;;;0.10;;
80175;SDS011;71945;42.122;24.732;2023-10-13T02:24:09;0.10;;;0.10;;
80175;SDS011;71945;42.122;24.732;2023-10-13T02:26:44;0.10;;;0.10;;
80175;SDS011;71945;42.122;24.732;2023-10-13T02:29:10;0.10;;;0.10;;
80175;SDS011;71945;42.122;24.732;2023-10-13T02:31:39;0.10;;;0.10;;
80175;SDS011;71945;42.122;24.732;2023-10-13T02:34:06;0.10;;;0.10;;
80175;SDS011;71945;42.122;24.732;2023-10-13T02:36:37;0.10;;;0.10;;
80175;SDS011;71945;42.122;24.732;2023-10-13T02:39:13;0.10;;;0.10;;
80175;SDS011;71945;42.122;24.732;2023-10-13T02:41:50;0.10;;;0.10;;
80175;SDS011;71945;42.122;24.732;2023-10-13T02:44:16;0.17;;;0.17;;
80175;SDS011;71945;42.122;24.732;2023-10-13T02:46:54;0.10;;;0.10;;
80175;SDS011;71945;42.122;24.732;2023-10-13T02:49:24;0.10;;;0.10;;
80175;SDS011;71945;42.122;24.732;2023-10-13T02:51:51;0.10;;;0.10;;
80175;SDS011;71945;42.122;24.732;2023-10-13T02:54:41;0.10;;;0.10;;
80175;SDS011;71945;42.122;24.732;2023-10-13T02:57:16;0.10;;;0.10;;
80175;SDS011;71945;42.122;24.732;2023-10-13T02:59:42;0.10;;;0.10;;
80175;SDS011;71945;42.122;24.732;2023-10-13T03:02:14;0.10;;;0.10;;
80175;SDS011;71945;42.122;24.732;2023-10-13T03:04:56;0.10;;;0.10;;
80175;SDS011;71945;42.122;24.732;2023-10-13T03:07:33;0.10;;;0.10;;
80175;SDS011;71945;42.122;24.732;2023-10-13T03:10:01;0.10;;;0.10;;
80175;SDS011;71945;42.122;24.732;2023-10-13T03:12:35;0.20;;;0.20;;
80175;SDS011;71945;42.122;24.732;2023-10-13T03:15:01;0.13;;;0.13;;
80175;SDS011;71945;42.122;24.732;2023-10-13T03:17:36;0.10;;;0.10;;
80175;SDS011;71945;42.122;24.732;2023-10-13T03:20:05;0.10;;;0.10;;
80175;SDS011;71945;42.122;24.732;2023-10-13T03:22:32;0.10;;;0.10;;
80175;SDS011;71945;42.122;24.732;2023-10-13T03:24:58;0.10;;;0.10;;
80175;SDS011;71945;42.122;24.732;2023-10-13T03:27:34;0.10;;;0.10;;
80175;SDS011;71945;42.122;24.732;2023-10-13T03:30:25;0.20;;;0.20;;
80175;SDS011;71945;42.122;24.732;2023-10-13T03:33:04;0.10;;;0.10;;
80175;SDS011;71945;42.122;24.732;2023-10-13T03:35:50;0.20;;;0.20;;
80175;SDS011;71945;42.122;24.732;2023-10-13T03:38:19;0.10;;;0.10;;
80175;SDS011;71945;42.122;24.732;2023-10-13T03:40:49;0.10;;;0.10;;
80175;SDS011;71945;42.122;24.732;2023-10-13T03:43:22;0.20;;;0.20;;
80175;SDS011;71945;42.122;24.732;2023-10-13T03:45:49;0.13;;;0.13;;
80175;SDS011;71945;42.122;24.732;2023-10-13T03:48:25;0.20;;;0.20;;
80175;SDS011;71945;42.122;24.732;2023-10-13T03:50:52;0.20;;;0.20;;
80175;SDS011;71945;42.122;24.732;2023-10-13T03:53:31;0.10;;;0.10;;
80175;SDS011;71945;42.122;24.732;2023-10-13T03:56:01;0.20;;;0.20;;
80175;SDS011;71945;42.122;24.732;2023-10-13T03:58:34;0.20;;;0.20;;
80175;SDS011;71945;42.122;24.732;2023-10-13T04:01:01;0.10;;;0.10;;
80175;SDS011;71945;42.122;24.732;2023-10-13T04:03:28;0.17;;;0.17;;
80175;SDS011;71945;42.122;24.732;2023-10-13T04:06:00;0.10;;;0.10;;
80175;SDS011;71945;42.122;24.732;2023-10-13T04:08:31;0.10;;;0.10;;
80175;SDS011;71945;42.122;24.732;2023-10-13T04:11:13;0.10;;;0.10;;
80175;SDS011;71945;42.122;24.732;2023-10-13T04:13:57;0.15;;;0.15;;
80175;SDS011;71945;42.122;24.732;2023-10-13T04:16:41;0.10;;;0.10;;
80175;SDS011;71945;42.122;24.732;2023-10-13T04:19:18;0.15;;;0.15;;
80175;SDS011;71945;42.122;24.732;2023-10-13T04:21:51;0.10;;;0.10;;
80175;SDS011;71945;42.122;24.732;2023-10-13T04:24:23;0.10;;;0.10;;
80175;SDS011;71945;42.122;24.732;2023-10-13T04:26:56;0.20;;;0.20;;
80175;SDS011;71945;42.122;24.732;2023-10-13T04:29:44;0.20;;;0.20;;
80175;SDS011;71945;42.122;24.732;2023-10-13T04:32:13;0.20;;;0.20;;
80175;SDS011;71945;42.122;24.732;2023-10-13T04:34:40;0.22;;;0.22;;
80175;SDS011;71945;42.122;24.732;2023-10-13T04:37:13;0.20;;;0.20;;
80175;SDS011;71945;42.122;24.732;2023-10-13T04:39:54;0.20;;;0.20;;
80175;SDS011;71945;42.122;24.732;2023-10-13T04:42:36;0.20;;;0.20;;
80175;SDS011;71945;42.122;24.732;2023-10-13T04:45:15;0.10;;;0.10;;
80175;SDS011;71945;42.122;24.732;2023-10-13T04:48:02;0.10;;;0.10;;
80175;SDS011;71945;42.122;24.732;2023-10-13T04:51:03;0.20;;;0.20;;
80175;SDS011;71945;42.122;24.732;2023-10-13T04:53:47;0.10;;;0.10;;
80175;SDS011;71945;42.122;24.732;2023-10-13T04:56:28;0.10;;;0.10;;
80175;SDS011;71945;42.122;24.732;2023-10-13T04:59:18;0.10;;;0.10;;
80175;SDS011;71945;42.122;24.732;2023-10-13T05:02:00;0.10;;;0.10;;
80175;SDS011;71945;42.122;24.732;2023-10-13T05:04:45;0.10;;;0.10;;
80175;SDS011;71945;42.122;24.732;2023-10-13T05:07:29;0.10;;;0.10;;
80175;SDS011;71945;42.122;24.732;2023-10-13T05:10:13;0.10;;;0.10;;
80175;SDS011;71945;42.122;24.732;2023-10-13T05:12:57;0.10;;;0.10;;
80175;SDS011;71945;42.122;24.732;2023-10-13T05:15:48;0.10;;;0.10;;
80175;SDS011;71945;42.122;24.732;2023-10-13T05:18:34;0.08;;;0.08;;
80175;SDS011;71945;42.122;24.732;2023-10-13T05:21:19;0.10;;;0.10;;
80175;SDS011;71945;42.122;24.732;2023-10-13T05:24:04;0.00;;;0.00;;
80175;SDS011;71945;42.122;24.732;2023-10-13T05:26:48;0.00;;;0.00;;
80175;SDS011;71945;42.122;24.732;2023-10-13T05:29:33;0.10;;;0.10;;
80175;SDS011;71945;42.122;24.732;2023-10-13T05:32:17;0.00;;;0.00;;
80175;SDS011;71945;42.122;24.732;2023-10-13T05:35:02;0.00;;;0.00;;
80175;SDS011;71945;42.122;24.732;2023-10-13T05:37:46;0.00;;;0.00;;
80175;SDS011;71945;42.122;24.732;2023-10-13T05:40:30;0.00;;;0.00;;
80175;SDS011;71945;42.122;24.732;2023-10-13T05:43:14;0.00;;;0.00;;
80175;SDS011;71945;42.122;24.732;2023-10-13T05:46:02;0.03;;;0.03;;
80175;SDS011;71945;42.122;24.732;2023-10-13T05:48:53;0.00;;;0.00;;
80175;SDS011;71945;42.122;24.732;2023-10-13T05:51:31;0.10;;;0.10;;
80175;SDS011;71945;42.122;24.732;2023-10-13T05:54:00;0.10;;;0.10;;
80175;SDS011;71945;42.122;24.732;2023-10-13T05:56:48;0.00;;;0.00;;
80175;SDS011;71945;42.122;24.732;2023-10-13T05:59:34;0.00;;;0.00;;
80175;SDS011;71945;42.122;24.732;2023-10-13T06:02:20;0.10;;;0.10;;
80175;SDS011;71945;42.122;24.732;2023-10-13T06:05:06;0.00;;;0.00;;
80175;SDS011;71945;42.122;24.732;2023-10-13T06:07:52;0.00;;;0.00;;
80175;SDS011;71945;42.122;24.732;2023-10-13T06:10:37;0.10;;;0.10;;
80175;SDS011;71945;42.122;24.732;2023-10-13T06:13:23;0.10;;;0.10;;
80175;SDS011;71945;42.122;24.732;2023-10-13T06:16:08;0.10;;;0.10;;
80175;SDS011;71945;42.122;24.732;2023-10-13T06:18:59;0.00;;;0.00;;
80175;SDS011;71945;42.122;24.732;2023-10-13T06:21:44;0.10;;;0.10;;
80175;SDS011;71945;42.122;24.732;2023-10-13T06:24:29;0.10;;;0.10;;
80175;SDS011;71945;42.122;24.732;2023-10-13T06:27:14;0.10;;;0.10;;
80175;SDS011;71945;42.122;24.732;2023-10-13T06:29:58;0.00;;;0.00;;
80175;SDS011;71945;42.122;24.732;2023-10-13T06:32:25;0.10;;;0.10;;
80175;SDS011;71945;42.122;24.732;2023-10-13T06:34:57;0.13;;;0.10;;
80175;SDS011;71945;42.122;24.732;2023-10-13T06:37:26;0.10;;;0.10;;
80175;SDS011;71945;42.122;24.732;2023-10-13T06:39:56;0.10;;;0.10;;
80175;SDS011;71945;42.122;24.732;2023-10-13T06:42:27;0.00;;;0.00;;
80175;SDS011;71945;42.122;24.732;2023-10-13T06:44:53;0.10;;;0.10;;
80175;SDS011;71945;42.122;24.732;2023-10-13T06:47:20;0.10;;;0.10;;
80175;SDS011;71945;42.122;24.732;2023-10-13T06:49:46;0.10;;;0.10;;
80175;SDS011;71945;42.122;24.732;2023-10-13T06:52:16;0.10;;;0.10;;
80175;SDS011;71945;42.122;24.732;2023-10-13T06:54:43;0.10;;;0.10;;
80175;SDS011;71945;42.122;24.732;2023-10-13T06:57:09;0.10;;;0.10;;
80175;SDS011;71945;42.122;24.732;2023-10-13T06:59:45;0.10;;;0.10;;
80175;SDS011;71945;42.122;24.732;2023-10-13T07:02:12;0.10;;;0.10;;
80175;SDS011;71945;42.122;24.732;2023-10-13T07:04:47;0.10;;;0.10;;
80175;SDS011;71945;42.122;24.732;2023-10-13T07:07:13;0.10;;;0.10;;
80175;SDS011;71945;42.122;24.732;2023-10-13T07:09:40;0.08;;;0.08;;
80175;SDS011;71945;42.122;24.732;2023-10-13T07:12:14;0.00;;;0.00;;
80175;SDS011;71945;42.122;24.732;2023-10-13T07:14:48;0.10;;;0.10;;
80175;SDS011;71945;42.122;24.732;2023-10-13T07:17:17;0.00;;;0.00;;
80175;SDS011;71945;42.122;24.732;2023-10-13T07:22:21;0.03;;;0.03;;
80175;SDS011;71945;42.122;24.732;2023-10-13T07:24:48;0.00;;;0.00;;
80175;SDS011;71945;42.122;24.732;2023-10-13T07:27:24;0.10;;;0.10;;
80175;SDS011;71945;42.122;24.732;2023-10-13T07:29:56;0.10;;;0.10;;
80175;SDS011;71945;42.122;24.732;2023-10-13T07:32:39;0.00;;;0.00;;
80175;SDS011;71945;42.122;24.732;2023-10-13T07:35:10;0.00;;;0.00;;
80175;SDS011;71945;42.122;24.732;2023-10-13T07:37:41;0.10;;;0.10;;
80175;SDS011;71945;42.122;24.732;2023-10-13T07:40:08;0.00;;;0.00;;
80175;SDS011;71945;42.122;24.732;2023-10-13T07:42:56;0.00;;;0.00;;
80175;SDS011;71945;42.122;24.732;2023-10-13T07:45:42;0.00;;;0.00;;
80175;SDS011;71945;42.122;24.732;2023-10-13T07:48:09;0.10;;;0.10;;
80175;SDS011;71945;42.122;24.732;2023-10-13T07:50:57;0.10;;;0.10;;
80175;SDS011;71945;42.122;24.732;2023-10-13T07:53:32;0.10;;;0.10;;
80175;SDS011;71945;42.122;24.732;2023-10-13T07:56:01;0.00;;;0.00;;
80175;SDS011;71945;42.122;24.732;2023-10-13T07:58:42;0.00;;;0.00;;
80175;SDS011;71945;42.122;24.732;2023-10-13T08:01:26;0.10;;;0.10;;
80175;SDS011;71945;42.122;24.732;2023-10-13T08:03:52;0.00;;;0.00;;
80175;SDS011;71945;42.122;24.732;2023-10-13T08:06:33;0.08;;;0.08;;
80175;SDS011;71945;42.122;24.732;2023-10-13T08:09:01;0.00;;;0.00;;
80175;SDS011;71945;42.122;24.732;2023-10-13T08:11:53;0.00;;;0.00;;
80175;SDS011;71945;42.122;24.732;2023-10-13T08:14:19;0.05;;;0.05;;
80175;SDS011;71945;42.122;24.732;2023-10-13T08:16:58;0.00;;;0.00;;
80175;SDS011;71945;42.122;24.732;2023-10-13T08:22:05;0.00;;;0.00;;
80175;SDS011;71945;42.122;24.732;2023-10-13T08:24:40;0.00;;;0.00;;
80175;SDS011;71945;42.122;24.732;2023-10-13T08:27:06;0.00;;;0.00;;
80175;SDS011;71945;42.122;24.732;2023-10-13T08:29:42;0.00;;;0.00;;
80175;SDS011;71945;42.122;24.732;2023-10-13T08:35:02;0.05;;;0.05;;
80175;SDS011;71945;42.122;24.732;2023-10-13T08:37:28;0.00;;;0.00;;
80175;SDS011;71945;42.122;24.732;2023-10-13T08:39:59;0.00;;;0.00;;
80175;SDS011;71945;42.122;24.732;2023-10-13T08:42:34;0.03;;;0.03;;
80175;SDS011;71945;42.122;24.732;2023-10-13T08:45:11;0.00;;;0.00;;
80175;SDS011;71945;42.122;24.732;2023-10-13T08:47:56;0.00;;;0.00;;
80175;SDS011;71945;42.122;24.732;2023-10-13T08:50:36;0.00;;;0.00;;
80175;SDS011;71945;42.122;24.732;2023-10-13T08:53:32;0.00;;;0.00;;
80175;SDS011;71945;42.122;24.732;2023-10-13T08:56:12;0.10;;;0.10;;
80175;SDS011;71945;42.122;24.732;2023-10-13T08:58:39;0.00;;;0.00;;
80175;SDS011;71945;42.122;24.732;2023-10-13T09:01:17;0.08;;;0.08;;
80175;SDS011;71945;42.122;24.732;2023-10-13T09:04:03;0.00;;;0.00;;
80175;SDS011;71945;42.122;24.732;2023-10-13T09:06:53;0.10;;;0.10;;
80175;SDS011;71945;42.122;24.732;2023-10-13T09:09:23;0.03;;;0.03;;
80175;SDS011;71945;42.122;24.732;2023-10-13T09:11:52;0.00;;;0.00;;
80175;SDS011;71945;42.122;24.732;2023-10-13T09:14:32;0.00;;;0.00;;
80175;SDS011;71945;42.122;24.732;2023-10-13T09:17:04;0.00;;;0.00;;
80175;SDS011;71945;42.122;24.732;2023-10-13T09:19:51;0.00;;;0.00;;
80175;SDS011;71945;42.122;24.732;2023-10-13T09:22:24;0.00;;;0.00;;
80175;SDS011;71945;42.122;24.732;2023-10-13T09:25:00;0.00;;;0.00;;
80175;SDS011;71945;42.122;24.732;2023-10-13T09:27:28;0.00;;;0.00;;
80175;SDS011;71945;42.122;24.732;2023-10-13T09:30:03;0.03;;;0.03;;
80175;SDS011;71945;42.122;24.732;2023-10-13T09:32:46;0.00;;;0.00;;
80175;SDS011;71945;42.122;24.732;2023-10-13T09:35:19;0.00;;;0.00;;
80175;SDS011;71945;42.122;24.732;2023-10-13T09:37:48;0.00;;;0.00;;
80175;SDS011;71945;42.122;24.732;2023-10-13T09:40:16;0.00;;;0.00;;
80175;SDS011;71945;42.122;24.732;2023-10-13T09:42:57;0.00;;;0.00;;
80175;SDS011;71945;42.122;24.732;2023-10-13T09:45:33;0.00;;;0.00;;
80175;SDS011;71945;42.122;24.732;2023-10-13T09:48:11;0.00;;;0.00;;
80175;SDS011;71945;42.122;24.732;2023-10-13T09:50:47;0.00;;;0.00;;
80175;SDS011;71945;42.122;24.732;2023-10-13T09:53:14;0.00;;;0.00;;
80175;SDS011;71945;42.122;24.732;2023-10-13T09:55:50;0.00;;;0.00;;
80175;SDS011;71945;42.122;24.732;2023-10-13T09:58:53;0.00;;;0.00;;
80175;SDS011;71945;42.122;24.732;2023-10-13T10:01:26;0.00;;;0.00;;
80175;SDS011;71945;42.122;24.732;2023-10-13T10:04:06;0.00;;;0.00;;
80175;SDS011;71945;42.122;24.732;2023-10-13T10:06:50;0.00;;;0.00;;
80175;SDS011;71945;42.122;24.732;2023-10-13T10:09:31;0.00;;;0.00;;
80175;SDS011;71945;42.122;24.732;2023-10-13T10:17:22;0.00;;;0.00;;
80175;SDS011;71945;42.122;24.732;2023-10-13T10:19:51;0.00;;;0.00;;
80175;SDS011;71945;42.122;24.732;2023-10-13T10:22:25;0.00;;;0.00;;
80175;SDS011;71945;42.122;24.732;2023-10-13T10:25:04;0.00;;;0.00;;
80175;SDS011;71945;42.122;24.732;2023-10-13T10:27:56;0.00;;;0.00;;
80175;SDS011;71945;42.122;24.732;2023-10-13T10:30:24;0.00;;;0.00;;
80175;SDS011;71945;42.122;24.732;2023-10-13T10:32:56;0.00;;;0.00;;
80175;SDS011;71945;42.122;24.732;2023-10-13T10:35:26;0.00;;;0.00;;
80175;SDS011;71945;42.122;24.732;2023-10-13T10:37:58;0.00;;;0.00;;
80175;SDS011;71945;42.122;24.732;2023-10-13T10:41:02;0.00;;;0.00;;
80175;SDS011;71945;42.122;24.732;2023-10-13T10:46:12;0.00;;;0.00;;
80175;SDS011;71945;42.122;24.732;2023-10-13T10:48:39;0.00;;;0.00;;
80175;SDS011;71945;42.122;24.732;2023-10-13T10:51:08;0.00;;;0.00;;
80175;SDS011;71945;42.122;24.732;2023-10-13T10:53:50;0.00;;;0.00;;
80175;SDS011;71945;42.122;24.732;2023-10-13T10:56:25;0.00;;;0.00;;
80175;SDS011;71945;42.122;24.732;2023-10-13T10:59:01;0.00;;;0.00;;
80175;SDS011;71945;42.122;24.732;2023-10-13T11:01:29;0.00;;;0.00;;
80175;SDS011;71945;42.122;24.732;2023-10-13T11:03:59;0.00;;;0.00;;
80175;SDS011;71945;42.122;24.732;2023-10-13T11:06:47;0.00;;;0.00;;
80175;SDS011;71945;42.122;24.732;2023-10-13T11:09:30;0.00;;;0.00;;
80175;SDS011;71945;42.122;24.732;2023-10-13T11:12:08;0.00;;;0.00;;
80175;SDS011;71945;42.122;24.732;2023-10-13T11:14:40;0.00;;;0.00;;
80175;SDS011;71945;42.122;24.732;2023-10-13T11:17:23;0.00;;;0.00;;
80175;SDS011;71945;42.122;24.732;2023-10-13T11:20:07;0.00;;;0.00;;
80175;SDS011;71945;42.122;24.732;2023-10-13T11:22:41;0.00;;;0.00;;
80175;SDS011;71945;42.122;24.732;2023-10-13T11:25:19;0.00;;;0.00;;
80175;SDS011;71945;42.122;24.732;2023-10-13T11:28:14;0.00;;;0.00;;
80175;SDS011;71945;42.122;24.732;2023-10-13T11:30:56;0.00;;;0.00;;
80175;SDS011;71945;42.122;24.732;2023-10-13T11:33:35;0.00;;;0.00;;
80175;SDS011;71945;42.122;24.732;2023-10-13T11:36:01;0.00;;;0.00;;
80175;SDS011;71945;42.122;24.732;2023-10-13T11:41:10;0.00;;;0.00;;
80175;SDS011;71945;42.122;24.732;2023-10-13T11:46:16;0.00;;;0.00;;
80175;SDS011;71945;42.122;24.732;2023-10-13T11:49:01;0.00;;;0.00;;
80175;SDS011;71945;42.122;24.732;2023-10-13T11:51:43;0.00;;;0.00;;
80175;SDS011;71945;42.122;24.732;2023-10-13T11:54:11;0.00;;;0.00;;
80175;SDS011;71945;42.122;24.732;2023-10-13T11:56:47;0.00;;;0.00;;
80175;SDS011;71945;42.122;24.732;2023-10-13T11:59:14;0.00;;;0.00;;
80175;SDS011;71945;42.122;24.732;2023-10-13T12:01:49;0.00;;;0.00;;
80175;SDS011;71945;42.122;24.732;2023-10-13T12:07:14;0.00;;;0.00;;
80175;SDS011;71945;42.122;24.732;2023-10-13T12:09:45;0.00;;;0.00;;
80175;SDS011;71945;42.122;24.732;2023-10-13T12:12:27;0.00;;;0.00;;
80175;SDS011;71945;42.122;24.732;2023-10-13T12:14:55;0.00;;;0.00;;
80175;SDS011;71945;42.122;24.732;2023-10-13T12:17:21;0.00;;;0.00;;
80175;SDS011;71945;42.122;24.732;2023-10-13T12:19:56;0.00;;;0.00;;
80175;SDS011;71945;42.122;24.732;2023-10-13T12:22:22;0.00;;;0.00;;
80175;SDS011;71945;42.122;24.732;2023-10-13T12:25:00;0.00;;;0.00;;
80175;SDS011;71945;42.122;24.732;2023-10-13T12:27:29;0.00;;;0.00;;
80175;SDS011;71945;42.122;24.732;2023-10-13T12:30:10;0.00;;;0.00;;
80175;SDS011;71945;42.122;24.732;2023-10-13T12:32:39;0.00;;;0.00;;
80175;SDS011;71945;42.122;24.732;2023-10-13T12:35:09;0.00;;;0.00;;
80175;SDS011;71945;42.122;24.732;2023-10-13T12:37:35;0.00;;;0.00;;
80175;SDS011;71945;42.122;24.732;2023-10-13T12:40:04;0.00;;;0.00;;
80175;SDS011;71945;42.122;24.732;2023-10-13T12:42:50;0.00;;;0.00;;
80175;SDS011;71945;42.122;24.732;2023-10-13T12:45:41;0.00;;;0.00;;
80175;SDS011;71945;42.122;24.732;2023-10-13T12:48:26;0.00;;;0.00;;
80175;SDS011;71945;42.122;24.732;2023-10-13T12:51:11;0.00;;;0.00;;
80175;SDS011;71945;42.122;24.732;2023-10-13T12:54:05;0.00;;;0.00;;
80175;SDS011;71945;42.122;24.732;2023-10-13T12:56:45;0.00;;;0.00;;
80175;SDS011;71945;42.122;24.732;2023-10-13T12:59:11;0.00;;;0.00;;
80175;SDS011;71945;42.122;24.732;2023-10-13T13:01:40;0.00;;;0.00;;
80175;SDS011;71945;42.122;24.732;2023-10-13T13:04:09;0.00;;;0.00;;
80175;SDS011;71945;42.122;24.732;2023-10-13T13:06:48;0.00;;;0.00;;
80175;SDS011;71945;42.122;24.732;2023-10-13T13:09:15;0.00;;;0.00;;
80175;SDS011;71945;42.122;24.732;2023-10-13T13:11:50;0.00;;;0.00;;
80175;SDS011;71945;42.122;24.732;2023-10-13T13:14:22;0.00;;;0.00;;
80175;SDS011;71945;42.122;24.732;2023-10-13T13:16:54;0.00;;;0.00;;
80175;SDS011;71945;42.122;24.732;2023-10-13T13:19:29;0.00;;;0.00;;
80175;SDS011;71945;42.122;24.732;2023-10-13T13:24:30;0.00;;;0.00;;
80175;SDS011;71945;42.122;24.732;2023-10-13T13:26:57;0.00;;;0.00;;
80175;SDS011;71945;42.122;24.732;2023-10-13T13:29:28;0.00;;;0.00;;
80175;SDS011;71945;42.122;24.732;2023-10-13T13:31:54;0.00;;;0.00;;
80175;SDS011;71945;42.122;24.732;2023-10-13T13:34:20;0.00;;;0.00;;
80175;SDS011;71945;42.122;24.732;2023-10-13T13:36:47;0.00;;;0.00;;
80175;SDS011;71945;42.122;24.732;2023-10-13T13:39:18;0.00;;;0.00;;
80175;SDS011;71945;42.122;24.732;2023-10-13T13:41:53;0.00;;;0.00;;
80175;SDS011;71945;42.122;24.732;2023-10-13T13:44:22;0.00;;;0.00;;
80175;SDS011;71945;42.122;24.732;2023-10-13T13:46:57;0.00;;;0.00;;
80175;SDS011;71945;42.122;24.732;2023-10-13T13:49:23;0.00;;;0.00;;
80175;SDS011;71945;42.122;24.732;2023-10-13T13:51:55;0.00;;;0.00;;
80175;SDS011;71945;42.122;24.732;2023-10-13T13:54:21;0.00;;;0.00;;
80175;SDS011;71945;42.122;24.732;2023-10-13T13:56:47;0.00;;;0.00;;
80175;SDS011;71945;42.122;24.732;2023-10-13T13:59:13;0.00;;;0.00;;
80175;SDS011;71945;42.122;24.732;2023-10-13T14:01:45;0.00;;;0.00;;
80175;SDS011;71945;42.122;24.732;2023-10-13T14:04:11;0.00;;;0.00;;
80175;SDS011;71945;42.122;24.732;2023-10-13T14:06:39;0.00;;;0.00;;
80175;SDS011;71945;42.122;24.732;2023-10-13T14:09:05;0.00;;;0.00;;
80175;SDS011;71945;42.122;24.732;2023-10-13T14:11:41;0.00;;;0.00;;
80175;SDS011;71945;42.122;24.732;2023-10-13T14:14:22;0.00;;;0.00;;
80175;SDS011;71945;42.122;24.732;2023-10-13T14:16:51;0.00;;;0.00;;
80175;SDS011;71945;42.122;24.732;2023-10-13T14:19:18;0.00;;;0.00;;
80175;SDS011;71945;42.122;24.732;2023-10-13T14:21:52;0.00;;;0.00;;
80175;SDS011;71945;42.122;24.732;2023-10-13T14:24:21;0.00;;;0.00;;
80175;SDS011;71945;42.122;24.732;2023-10-13T14:29:36;0.00;;;0.00;;
80175;SDS011;71945;42.122;24.732;2023-10-13T14:32:14;0.00;;;0.00;;
80175;SDS011;71945;42.122;24.732;2023-10-13T14:34:40;0.00;;;0.00;;
80175;SDS011;71945;42.122;24.732;2023-10-13T14:37:10;0.00;;;0.00;;
80175;SDS011;71945;42.122;24.732;2023-10-13T14:39:45;0.00;;;0.00;;
80175;SDS011;71945;42.122;24.732;2023-10-13T14:42:10;0.00;;;0.00;;
80175;SDS011;71945;42.122;24.732;2023-10-13T14:44:36;0.00;;;0.00;;
80175;SDS011;71945;42.122;24.732;2023-10-13T14:47:02;0.00;;;0.00;;
80175;SDS011;71945;42.122;24.732;2023-10-13T14:49:30;0.00;;;0.00;;
80175;SDS011;71945;42.122;24.732;2023-10-13T14:51:56;0.00;;;0.00;;
80175;SDS011;71945;42.122;24.732;2023-10-13T14:54:24;0.00;;;0.00;;
80175;SDS011;71945;42.122;24.732;2023-10-13T14:57:00;0.00;;;0.00;;
80175;SDS011;71945;42.122;24.732;2023-10-13T14:59:28;0.00;;;0.00;;
80175;SDS011;71945;42.122;24.732;2023-10-13T15:02:03;0.00;;;0.00;;
80175;SDS011;71945;42.122;24.732;2023-10-13T15:04:29;0.00;;;0.00;;
80175;SDS011;71945;42.122;24.732;2023-10-13T15:06:58;0.00;;;0.00;;
80175;SDS011;71945;42.122;24.732;2023-10-13T15:09:27;0.00;;;0.00;;
80175;SDS011;71945;42.122;24.732;2023-10-13T15:11:53;0.00;;;0.00;;
80175;SDS011;71945;42.122;24.732;2023-10-13T15:14:19;0.00;;;0.00;;
80175;SDS011;71945;42.122;24.732;2023-10-13T15:16:45;0.00;;;0.00;;
80175;SDS011;71945;42.122;24.732;2023-10-13T15:19:11;0.00;;;0.00;;
80175;SDS011;71945;42.122;24.732;2023-10-13T15:21:37;0.00;;;0.00;;
80175;SDS011;71945;42.122;24.732;2023-10-13T15:24:05;0.00;;;0.00;;
80175;SDS011;71945;42.122;24.732;2023-10-13T15:26:47;0.00;;;0.00;;
80175;SDS011;71945;42.122;24.732;2023-10-13T15:29:13;0.00;;;0.00;;
80175;SDS011;71945;42.122;24.732;2023-10-13T15:31:43;0.00;;;0.00;;
80175;SDS011;71945;42.122;24.732;2023-10-13T15:34:25;0.00;;;0.00;;
80175;SDS011;71945;42.122;24.732;2023-10-13T15:36:52;0.00;;;0.00;;
80175;SDS011;71945;42.122;24.732;2023-10-13T15:39:20;0.00;;;0.00;;
80175;SDS011;71945;42.122;24.732;2023-10-13T15:41:52;0.00;;;0.00;;
80175;SDS011;71945;42.122;24.732;2023-10-13T15:44:18;0.00;;;0.00;;
80175;SDS011;71945;42.122;24.732;2023-10-13T15:46:52;0.00;;;0.00;;
80175;SDS011;71945;42.122;24.732;2023-10-13T15:49:19;0.00;;;0.00;;
80175;SDS011;71945;42.122;24.732;2023-10-13T15:51:44;0.00;;;0.00;;